sensor_id;sensor_type;location;lat;lon;timestamp;P1;durP1;ratioP1;P2;durP2;ratioP2
9892;SDS011;4985;49.092;8.542;2023-11-22T00:00:08;2.23;;;1.83;;
9892;SDS011;4985;49.092;8.542;2023-11-22T00:02:34;1.40;;;1.30;;
9892;SDS011;4985;49.092;8.542;2023-11-22T00:05:00;1.83;;;1.40;;
9892;SDS011;4985;49.092;8.542;2023-11-22T00:07:26;2.70;;;1.10;;
9892;SDS011;4985;49.092;8.542;2023-11-22T00:09:54;2.90;;;1.30;;
9892;SDS011;4985;49.092;8.542;2023-11-22T00:12:19;1.27;;;1.10;;
9892;SDS011;4985;49.092;8.542;2023-11-22T00:14:44;1.27;;;1.17;;
9892;SDS011;4985;49.092;8.542;2023-11-22T00:17:11;1.20;;;0.90;;
9892;SDS011;4985;49.092;8.542;2023-11-22T00:19:37;1.47;;;1.10;;
9892;SDS011;4985;49.092;8.542;2023-11-22T00:22:03;1.37;;;1.10;;
9892;SDS011;4985;49.092;8.542;2023-11-22T00:24:36;1.43;;;1.00;;
9892;SDS011;4985;49.092;8.542;2023-11-22T00:27:02;1.10;;;1.00;;
9892;SDS011;4985;49.092;8.542;2023-11-22T00:29:27;1.47;;;1.37;;
9892;SDS011;4985;49.092;8.542;2023-11-22T00:31:53;1.40;;;1.30;;
9892;SDS011;4985;49.092;8.542;2023-11-22T00:34:18;1.77;;;1.33;;
9892;SDS011;4985;49.092;8.542;2023-11-22T00:36:43;2.07;;;1.30;;
9892;SDS011;4985;49.092;8.542;2023-11-22T00:39:08;1.73;;;1.50;;
9892;SDS011;4985;49.092;8.542;2023-11-22T00:41:38;1.70;;;1.27;;
9892;SDS011;4985;49.092;8.542;2023-11-22T00:44:03;1.47;;;1.27;;
9892;SDS011;4985;49.092;8.542;2023-11-22T00:46:30;1.30;;;0.93;;
9892;SDS011;4985;49.092;8.542;2023-11-22T00:48:56;1.50;;;1.27;;
9892;SDS011;4985;49.092;8.542;2023-11-22T00:51:22;1.07;;;1.00;;
9892;SDS011;4985;49.092;8.542;2023-11-22T00:53:47;1.37;;;1.27;;
9892;SDS011;4985;49.092;8.542;2023-11-22T00:56:12;1.27;;;1.17;;
9892;SDS011;4985;49.092;8.542;2023-11-22T00:58:38;1.20;;;1.07;;
9892;SDS011;4985;49.092;8.542;2023-11-22T01:01:04;2.10;;;1.10;;
9892;SDS011;4985;49.092;8.542;2023-11-22T01:03:30;1.50;;;1.40;;
9892;SDS011;4985;49.092;8.542;2023-11-22T01:05:55;3.83;;;1.40;;
9892;SDS011;4985;49.092;8.542;2023-11-22T01:08:20;1.70;;;1.40;;
9892;SDS011;4985;49.092;8.542;2023-11-22T01:10:47;1.60;;;1.20;;
9892;SDS011;4985;49.092;8.542;2023-11-22T01:13:12;1.33;;;1.23;;
9892;SDS011;4985;49.092;8.542;2023-11-22T01:15:39;1.13;;;1.03;;
9892;SDS011;4985;49.092;8.542;2023-11-22T01:18:05;2.67;;;1.33;;
9892;SDS011;4985;49.092;8.542;2023-11-22T01:20:30;3.90;;;1.70;;
9892;SDS011;4985;49.092;8.542;2023-11-22T01:22:56;1.17;;;1.07;;
9892;SDS011;4985;49.092;8.542;2023-11-22T01:25:21;1.47;;;1.33;;
9892;SDS011;4985;49.092;8.542;2023-11-22T01:27:46;1.30;;;1.10;;
9892;SDS011;4985;49.092;8.542;2023-11-22T01:30:12;2.30;;;1.60;;
9892;SDS011;4985;49.092;8.542;2023-11-22T01:32:37;1.50;;;1.40;;
9892;SDS011;4985;49.092;8.542;2023-11-22T01:35:03;1.67;;;1.30;;
9892;SDS011;4985;49.092;8.542;2023-11-22T01:37:30;1.50;;;1.40;;
9892;SDS011;4985;49.092;8.542;2023-11-22T01:39:57;2.00;;;1.30;;
9892;SDS011;4985;49.092;8.542;2023-11-22T01:42:22;1.70;;;1.33;;
9892;SDS011;4985;49.092;8.542;2023-11-22T01:44:49;1.30;;;1.20;;
9892;SDS011;4985;49.092;8.542;2023-11-22T01:47:14;1.77;;;1.33;;
9892;SDS011;4985;49.092;8.542;2023-11-22T01:49:40;1.60;;;1.50;;
9892;SDS011;4985;49.092;8.542;2023-11-22T01:52:06;1.60;;;1.50;;
9892;SDS011;4985;49.092;8.542;2023-11-22T01:54:31;0.43;;;0.43;;
9892;SDS011;4985;49.092;8.542;2023-11-22T01:56:58;1.20;;;1.03;;
9892;SDS011;4985;49.092;8.542;2023-11-22T01:59:25;0.60;;;0.60;;
9892;SDS011;4985;49.092;8.542;2023-11-22T02:01:53;1.23;;;0.90;;
9892;SDS011;4985;49.092;8.542;2023-11-22T02:04:18;1.30;;;1.17;;
9892;SDS011;4985;49.092;8.542;2023-11-22T02:06:44;1.20;;;1.10;;
9892;SDS011;4985;49.092;8.542;2023-11-22T02:09:10;1.40;;;1.30;;
9892;SDS011;4985;49.092;8.542;2023-11-22T02:11:38;1.30;;;1.20;;
9892;SDS011;4985;49.092;8.542;2023-11-22T02:14:04;1.17;;;1.10;;
9892;SDS011;4985;49.092;8.542;2023-11-22T02:16:32;1.47;;;1.20;;
9892;SDS011;4985;49.092;8.542;2023-11-22T02:18:57;1.30;;;1.20;;
9892;SDS011;4985;49.092;8.542;2023-11-22T02:21:23;1.37;;;1.27;;
9892;SDS011;4985;49.092;8.542;2023-11-22T02:23:48;1.20;;;1.10;;
9892;SDS011;4985;49.092;8.542;2023-11-22T02:26:14;2.00;;;1.40;;
9892;SDS011;4985;49.092;8.542;2023-11-22T02:28:42;2.07;;;1.40;;
9892;SDS011;4985;49.092;8.542;2023-11-22T02:31:08;1.50;;;1.33;;
9892;SDS011;4985;49.092;8.542;2023-11-22T02:33:33;2.07;;;1.30;;
9892;SDS011;4985;49.092;8.542;2023-11-22T02:35:59;1.33;;;1.10;;
9892;SDS011;4985;49.092;8.542;2023-11-22T02:38:24;1.40;;;1.30;;
9892;SDS011;4985;49.092;8.542;2023-11-22T02:40:51;1.53;;;1.43;;
9892;SDS011;4985;49.092;8.542;2023-11-22T02:43:17;1.73;;;1.43;;
9892;SDS011;4985;49.092;8.542;2023-11-22T02:45:42;1.27;;;1.10;;
9892;SDS011;4985;49.092;8.542;2023-11-22T02:48:08;1.80;;;1.40;;
9892;SDS011;4985;49.092;8.542;2023-11-22T02:50:34;1.67;;;1.17;;
9892;SDS011;4985;49.092;8.542;2023-11-22T02:53:00;2.10;;;1.17;;
9892;SDS011;4985;49.092;8.542;2023-11-22T02:55:26;1.23;;;1.13;;
9892;SDS011;4985;49.092;8.542;2023-11-22T02:57:51;2.63;;;1.77;;
9892;SDS011;4985;49.092;8.542;2023-11-22T03:00:16;2.43;;;1.40;;
9892;SDS011;4985;49.092;8.542;2023-11-22T03:02:43;1.60;;;1.17;;
9892;SDS011;4985;49.092;8.542;2023-11-22T03:05:11;1.40;;;1.30;;
9892;SDS011;4985;49.092;8.542;2023-11-22T03:07:37;1.60;;;1.43;;
9892;SDS011;4985;49.092;8.542;2023-11-22T03:10:03;1.47;;;1.20;;
9892;SDS011;4985;49.092;8.542;2023-11-22T03:12:29;1.40;;;1.23;;
9892;SDS011;4985;49.092;8.542;2023-11-22T03:14:54;1.20;;;1.03;;
9892;SDS011;4985;49.092;8.542;2023-11-22T03:17:23;1.50;;;1.10;;
9892;SDS011;4985;49.092;8.542;2023-11-22T03:19:49;1.40;;;1.30;;
9892;SDS011;4985;49.092;8.542;2023-11-22T03:22:14;4.20;;;1.47;;
9892;SDS011;4985;49.092;8.542;2023-11-22T03:24:40;1.70;;;1.40;;
9892;SDS011;4985;49.092;8.542;2023-11-22T03:27:05;1.73;;;1.30;;
9892;SDS011;4985;49.092;8.542;2023-11-22T03:29:31;1.40;;;1.30;;
9892;SDS011;4985;49.092;8.542;2023-11-22T03:31:56;1.27;;;1.17;;
9892;SDS011;4985;49.092;8.542;2023-11-22T03:34:21;2.57;;;1.40;;
9892;SDS011;4985;49.092;8.542;2023-11-22T03:36:47;1.97;;;1.27;;
9892;SDS011;4985;49.092;8.542;2023-11-22T03:39:14;1.53;;;1.30;;
9892;SDS011;4985;49.092;8.542;2023-11-22T03:41:40;2.03;;;1.43;;
9892;SDS011;4985;49.092;8.542;2023-11-22T03:44:07;1.77;;;1.50;;
9892;SDS011;4985;49.092;8.542;2023-11-22T03:46:34;1.83;;;1.53;;
9892;SDS011;4985;49.092;8.542;2023-11-22T03:49:06;1.83;;;1.50;;
9892;SDS011;4985;49.092;8.542;2023-11-22T03:51:32;2.40;;;1.57;;
9892;SDS011;4985;49.092;8.542;2023-11-22T03:53:58;1.33;;;1.13;;
9892;SDS011;4985;49.092;8.542;2023-11-22T03:56:23;1.87;;;1.30;;
9892;SDS011;4985;49.092;8.542;2023-11-22T03:58:48;1.57;;;1.30;;
9892;SDS011;4985;49.092;8.542;2023-11-22T04:01:14;1.23;;;1.13;;
9892;SDS011;4985;49.092;8.542;2023-11-22T04:03:41;1.73;;;1.50;;
9892;SDS011;4985;49.092;8.542;2023-11-22T04:06:06;1.40;;;1.30;;
9892;SDS011;4985;49.092;8.542;2023-11-22T04:08:32;1.37;;;1.20;;
9892;SDS011;4985;49.092;8.542;2023-11-22T04:10:57;1.73;;;1.27;;
9892;SDS011;4985;49.092;8.542;2023-11-22T04:13:22;1.23;;;1.13;;
9892;SDS011;4985;49.092;8.542;2023-11-22T04:15:49;1.37;;;1.27;;
9892;SDS011;4985;49.092;8.542;2023-11-22T04:18:15;1.33;;;1.23;;
9892;SDS011;4985;49.092;8.542;2023-11-22T04:20:40;3.67;;;1.37;;
9892;SDS011;4985;49.092;8.542;2023-11-22T04:23:06;1.33;;;1.17;;
9892;SDS011;4985;49.092;8.542;2023-11-22T04:25:31;1.87;;;1.40;;
9892;SDS011;4985;49.092;8.542;2023-11-22T04:27:59;1.83;;;1.37;;
9892;SDS011;4985;49.092;8.542;2023-11-22T04:30:24;1.40;;;1.30;;
9892;SDS011;4985;49.092;8.542;2023-11-22T04:32:50;1.63;;;1.17;;
9892;SDS011;4985;49.092;8.542;2023-11-22T04:35:15;1.80;;;1.30;;
9892;SDS011;4985;49.092;8.542;2023-11-22T04:37:40;1.40;;;1.30;;
9892;SDS011;4985;49.092;8.542;2023-11-22T04:40:06;1.47;;;1.37;;
9892;SDS011;4985;49.092;8.542;2023-11-22T04:42:36;2.00;;;1.47;;
9892;SDS011;4985;49.092;8.542;2023-11-22T04:45:02;2.20;;;1.50;;
9892;SDS011;4985;49.092;8.542;2023-11-22T04:47:28;1.33;;;1.23;;
9892;SDS011;4985;49.092;8.542;2023-11-22T04:49:53;2.07;;;1.47;;
9892;SDS011;4985;49.092;8.542;2023-11-22T04:52:19;1.47;;;1.30;;
9892;SDS011;4985;49.092;8.542;2023-11-22T04:54:44;1.47;;;1.37;;
9892;SDS011;4985;49.092;8.542;2023-11-22T04:57:09;1.70;;;1.60;;
9892;SDS011;4985;49.092;8.542;2023-11-22T04:59:35;2.03;;;1.30;;
9892;SDS011;4985;49.092;8.542;2023-11-22T05:02:00;2.90;;;2.20;;
9892;SDS011;4985;49.092;8.542;2023-11-22T05:04:26;1.93;;;1.70;;
9892;SDS011;4985;49.092;8.542;2023-11-22T05:06:52;2.37;;;1.80;;
9892;SDS011;4985;49.092;8.542;2023-11-22T05:09:18;4.77;;;3.07;;
9892;SDS011;4985;49.092;8.542;2023-11-22T05:11:44;3.50;;;2.77;;
9892;SDS011;4985;49.092;8.542;2023-11-22T05:14:09;1.53;;;1.37;;
9892;SDS011;4985;49.092;8.542;2023-11-22T05:16:35;2.27;;;1.67;;
9892;SDS011;4985;49.092;8.542;2023-11-22T05:19:00;2.87;;;1.63;;
9892;SDS011;4985;49.092;8.542;2023-11-22T05:21:26;1.83;;;1.60;;
9892;SDS011;4985;49.092;8.542;2023-11-22T05:23:51;1.53;;;1.33;;
9892;SDS011;4985;49.092;8.542;2023-11-22T05:26:19;2.37;;;1.40;;
9892;SDS011;4985;49.092;8.542;2023-11-22T05:28:44;0.90;;;0.73;;
9892;SDS011;4985;49.092;8.542;2023-11-22T05:31:11;2.90;;;1.47;;
9892;SDS011;4985;49.092;8.542;2023-11-22T05:33:37;2.40;;;1.70;;
9892;SDS011;4985;49.092;8.542;2023-11-22T05:36:02;1.70;;;1.50;;
9892;SDS011;4985;49.092;8.542;2023-11-22T05:38:28;0.73;;;0.73;;
9892;SDS011;4985;49.092;8.542;2023-11-22T05:40:53;1.30;;;1.20;;
9892;SDS011;4985;49.092;8.542;2023-11-22T05:43:19;1.43;;;1.30;;
9892;SDS011;4985;49.092;8.542;2023-11-22T05:45:50;1.50;;;1.40;;
9892;SDS011;4985;49.092;8.542;2023-11-22T05:48:16;1.33;;;0.97;;
9892;SDS011;4985;49.092;8.542;2023-11-22T05:50:41;1.30;;;1.20;;
9892;SDS011;4985;49.092;8.542;2023-11-22T05:53:06;1.03;;;1.03;;
9892;SDS011;4985;49.092;8.542;2023-11-22T05:55:32;1.57;;;1.20;;
9892;SDS011;4985;49.092;8.542;2023-11-22T05:57:57;2.17;;;1.30;;
9892;SDS011;4985;49.092;8.542;2023-11-22T06:00:22;0.70;;;0.70;;
9892;SDS011;4985;49.092;8.542;2023-11-22T06:02:48;2.13;;;1.50;;
9892;SDS011;4985;49.092;8.542;2023-11-22T06:05:13;0.40;;;0.40;;
9892;SDS011;4985;49.092;8.542;2023-11-22T06:07:38;1.30;;;1.10;;
9892;SDS011;4985;49.092;8.542;2023-11-22T06:10:04;2.93;;;1.63;;
9892;SDS011;4985;49.092;8.542;2023-11-22T06:12:29;0.50;;;0.50;;
9892;SDS011;4985;49.092;8.542;2023-11-22T06:14:55;1.33;;;1.23;;
9892;SDS011;4985;49.092;8.542;2023-11-22T06:17:20;1.40;;;1.30;;
9892;SDS011;4985;49.092;8.542;2023-11-22T06:19:45;1.30;;;1.13;;
9892;SDS011;4985;49.092;8.542;2023-11-22T06:22:11;1.27;;;1.17;;
9892;SDS011;4985;49.092;8.542;2023-11-22T06:24:37;1.70;;;1.40;;
9892;SDS011;4985;49.092;8.542;2023-11-22T06:27:02;1.50;;;1.40;;
9892;SDS011;4985;49.092;8.542;2023-11-22T06:29:28;1.57;;;1.47;;
9892;SDS011;4985;49.092;8.542;2023-11-22T06:31:54;1.87;;;1.50;;
9892;SDS011;4985;49.092;8.542;2023-11-22T06:34:19;1.67;;;1.17;;
9892;SDS011;4985;49.092;8.542;2023-11-22T06:36:45;1.77;;;1.27;;
9892;SDS011;4985;49.092;8.542;2023-11-22T06:39:10;2.53;;;1.10;;
9892;SDS011;4985;49.092;8.542;2023-11-22T06:41:38;1.07;;;0.93;;
9892;SDS011;4985;49.092;8.542;2023-11-22T06:44:06;1.80;;;0.83;;
9892;SDS011;4985;49.092;8.542;2023-11-22T06:46:32;1.93;;;1.37;;
9892;SDS011;4985;49.092;8.542;2023-11-22T06:48:57;1.97;;;1.53;;
9892;SDS011;4985;49.092;8.542;2023-11-22T06:51:23;1.20;;;1.10;;
9892;SDS011;4985;49.092;8.542;2023-11-22T06:53:49;2.23;;;1.67;;
9892;SDS011;4985;49.092;8.542;2023-11-22T06:56:14;1.60;;;1.37;;
9892;SDS011;4985;49.092;8.542;2023-11-22T06:58:39;1.50;;;1.10;;
9892;SDS011;4985;49.092;8.542;2023-11-22T07:01:05;2.23;;;1.30;;
9892;SDS011;4985;49.092;8.542;2023-11-22T07:03:32;2.00;;;1.20;;
9892;SDS011;4985;49.092;8.542;2023-11-22T07:05:57;1.00;;;1.00;;
9892;SDS011;4985;49.092;8.542;2023-11-22T07:08:22;0.90;;;0.90;;
9892;SDS011;4985;49.092;8.542;2023-11-22T07:10:50;1.10;;;0.97;;
9892;SDS011;4985;49.092;8.542;2023-11-22T07:13:17;1.33;;;1.00;;
9892;SDS011;4985;49.092;8.542;2023-11-22T07:15:43;1.30;;;1.17;;
9892;SDS011;4985;49.092;8.542;2023-11-22T07:18:08;1.83;;;1.20;;
9892;SDS011;4985;49.092;8.542;2023-11-22T07:20:35;1.37;;;1.20;;
9892;SDS011;4985;49.092;8.542;2023-11-22T07:23:00;1.90;;;1.53;;
9892;SDS011;4985;49.092;8.542;2023-11-22T07:25:25;1.50;;;1.13;;
9892;SDS011;4985;49.092;8.542;2023-11-22T07:27:51;2.53;;;1.40;;
9892;SDS011;4985;49.092;8.542;2023-11-22T07:30:18;1.67;;;1.50;;
9892;SDS011;4985;49.092;8.542;2023-11-22T07:32:45;1.87;;;1.10;;
9892;SDS011;4985;49.092;8.542;2023-11-22T07:35:10;1.20;;;1.10;;
9892;SDS011;4985;49.092;8.542;2023-11-22T07:37:37;3.87;;;1.57;;
9892;SDS011;4985;49.092;8.542;2023-11-22T07:40:07;1.80;;;1.30;;
9892;SDS011;4985;49.092;8.542;2023-11-22T07:42:34;1.83;;;1.50;;
9892;SDS011;4985;49.092;8.542;2023-11-22T07:45:00;1.50;;;1.20;;
9892;SDS011;4985;49.092;8.542;2023-11-22T07:47:25;1.87;;;1.23;;
9892;SDS011;4985;49.092;8.542;2023-11-22T07:49:51;2.23;;;1.37;;
9892;SDS011;4985;49.092;8.542;2023-11-22T07:52:17;1.30;;;1.20;;
9892;SDS011;4985;49.092;8.542;2023-11-22T07:54:42;1.47;;;1.37;;
9892;SDS011;4985;49.092;8.542;2023-11-22T07:57:09;2.33;;;1.60;;
9892;SDS011;4985;49.092;8.542;2023-11-22T07:59:35;2.00;;;1.50;;
9892;SDS011;4985;49.092;8.542;2023-11-22T08:02:01;2.20;;;1.17;;
9892;SDS011;4985;49.092;8.542;2023-11-22T08:04:31;1.67;;;1.43;;
9892;SDS011;4985;49.092;8.542;2023-11-22T08:06:57;1.87;;;1.50;;
9892;SDS011;4985;49.092;8.542;2023-11-22T08:09:22;2.67;;;1.23;;
9892;SDS011;4985;49.092;8.542;2023-11-22T08:11:48;4.10;;;1.50;;
9892;SDS011;4985;49.092;8.542;2023-11-22T08:14:14;1.60;;;1.27;;
9892;SDS011;4985;49.092;8.542;2023-11-22T08:16:40;1.70;;;1.50;;
9892;SDS011;4985;49.092;8.542;2023-11-22T08:19:07;2.77;;;1.33;;
9892;SDS011;4985;49.092;8.542;2023-11-22T08:21:34;2.60;;;1.83;;
9892;SDS011;4985;49.092;8.542;2023-11-22T08:23:59;1.57;;;1.47;;
9892;SDS011;4985;49.092;8.542;2023-11-22T08:26:25;3.30;;;1.87;;
9892;SDS011;4985;49.092;8.542;2023-11-22T08:28:51;1.37;;;1.20;;
9892;SDS011;4985;49.092;8.542;2023-11-22T08:31:16;5.60;;;1.33;;
9892;SDS011;4985;49.092;8.542;2023-11-22T08:33:41;2.37;;;1.40;;
9892;SDS011;4985;49.092;8.542;2023-11-22T08:36:07;2.07;;;1.47;;
9892;SDS011;4985;49.092;8.542;2023-11-22T08:38:34;2.53;;;1.53;;
9892;SDS011;4985;49.092;8.542;2023-11-22T08:41:09;0.60;;;0.60;;
9892;SDS011;4985;49.092;8.542;2023-11-22T08:43:38;1.67;;;1.30;;
9892;SDS011;4985;49.092;8.542;2023-11-22T08:46:04;2.13;;;1.63;;
9892;SDS011;4985;49.092;8.542;2023-11-22T08:48:30;2.63;;;1.40;;
9892;SDS011;4985;49.092;8.542;2023-11-22T08:50:56;3.37;;;1.70;;
9892;SDS011;4985;49.092;8.542;2023-11-22T08:53:22;2.60;;;1.60;;
9892;SDS011;4985;49.092;8.542;2023-11-22T08:55:48;1.83;;;1.33;;
9892;SDS011;4985;49.092;8.542;2023-11-22T08:58:13;2.90;;;1.57;;
9892;SDS011;4985;49.092;8.542;2023-11-22T09:00:39;1.53;;;1.40;;
9892;SDS011;4985;49.092;8.542;2023-11-22T09:03:06;3.93;;;1.87;;
9892;SDS011;4985;49.092;8.542;2023-11-22T09:05:33;2.60;;;1.63;;
9892;SDS011;4985;49.092;8.542;2023-11-22T09:07:58;2.27;;;1.80;;
9892;SDS011;4985;49.092;8.542;2023-11-22T09:10:26;2.57;;;1.70;;
9892;SDS011;4985;49.092;8.542;2023-11-22T09:12:52;3.40;;;1.73;;
9892;SDS011;4985;49.092;8.542;2023-11-22T09:15:17;2.03;;;1.63;;
9892;SDS011;4985;49.092;8.542;2023-11-22T09:17:48;5.57;;;1.73;;
9892;SDS011;4985;49.092;8.542;2023-11-22T09:20:14;3.63;;;2.10;;
9892;SDS011;4985;49.092;8.542;2023-11-22T09:22:45;2.83;;;1.80;;
9892;SDS011;4985;49.092;8.542;2023-11-22T09:25:15;1.70;;;1.57;;
9892;SDS011;4985;49.092;8.542;2023-11-22T09:27:42;2.27;;;1.70;;
9892;SDS011;4985;49.092;8.542;2023-11-22T09:30:11;2.50;;;1.60;;
9892;SDS011;4985;49.092;8.542;2023-11-22T09:32:43;2.00;;;1.60;;
9892;SDS011;4985;49.092;8.542;2023-11-22T09:35:14;2.60;;;2.00;;
9892;SDS011;4985;49.092;8.542;2023-11-22T09:37:40;2.80;;;1.80;;
9892;SDS011;4985;49.092;8.542;2023-11-22T09:40:09;2.67;;;2.00;;
9892;SDS011;4985;49.092;8.542;2023-11-22T09:42:36;3.37;;;1.87;;
9892;SDS011;4985;49.092;8.542;2023-11-22T09:45:02;1.97;;;1.57;;
9892;SDS011;4985;49.092;8.542;2023-11-22T09:47:28;2.43;;;1.57;;
9892;SDS011;4985;49.092;8.542;2023-11-22T09:49:57;3.03;;;1.90;;
9892;SDS011;4985;49.092;8.542;2023-11-22T09:52:27;2.90;;;1.90;;
9892;SDS011;4985;49.092;8.542;2023-11-22T09:54:54;3.50;;;2.07;;
9892;SDS011;4985;49.092;8.542;2023-11-22T09:57:20;1.73;;;1.57;;
9892;SDS011;4985;49.092;8.542;2023-11-22T09:59:49;1.83;;;1.63;;
9892;SDS011;4985;49.092;8.542;2023-11-22T10:02:17;1.70;;;1.60;;
9892;SDS011;4985;49.092;8.542;2023-11-22T10:04:43;3.10;;;1.77;;
9892;SDS011;4985;49.092;8.542;2023-11-22T10:07:08;1.60;;;1.47;;
9892;SDS011;4985;49.092;8.542;2023-11-22T10:09:35;2.10;;;1.70;;
9892;SDS011;4985;49.092;8.542;2023-11-22T10:12:03;2.33;;;1.67;;
9892;SDS011;4985;49.092;8.542;2023-11-22T10:14:29;2.60;;;1.70;;
9892;SDS011;4985;49.092;8.542;2023-11-22T10:16:59;2.13;;;1.90;;
9892;SDS011;4985;49.092;8.542;2023-11-22T10:19:27;2.27;;;1.57;;
9892;SDS011;4985;49.092;8.542;2023-11-22T10:22:02;2.80;;;1.60;;
9892;SDS011;4985;49.092;8.542;2023-11-22T10:24:31;2.03;;;1.83;;
9892;SDS011;4985;49.092;8.542;2023-11-22T10:27:01;3.83;;;2.07;;
9892;SDS011;4985;49.092;8.542;2023-11-22T10:29:26;3.17;;;2.27;;
9892;SDS011;4985;49.092;8.542;2023-11-22T10:31:52;2.73;;;2.00;;
9892;SDS011;4985;49.092;8.542;2023-11-22T10:34:22;2.90;;;1.90;;
9892;SDS011;4985;49.092;8.542;2023-11-22T10:36:48;2.50;;;1.83;;
9892;SDS011;4985;49.092;8.542;2023-11-22T10:39:18;3.23;;;2.07;;
9892;SDS011;4985;49.092;8.542;2023-11-22T10:41:46;3.37;;;1.70;;
9892;SDS011;4985;49.092;8.542;2023-11-22T10:44:12;2.73;;;2.30;;
9892;SDS011;4985;49.092;8.542;2023-11-22T10:46:40;2.30;;;1.93;;
9892;SDS011;4985;49.092;8.542;2023-11-22T10:49:06;2.27;;;1.80;;
9892;SDS011;4985;49.092;8.542;2023-11-22T10:51:32;2.60;;;1.97;;
9892;SDS011;4985;49.092;8.542;2023-11-22T10:53:58;3.13;;;2.07;;
9892;SDS011;4985;49.092;8.542;2023-11-22T10:56:26;3.03;;;1.87;;
9892;SDS011;4985;49.092;8.542;2023-11-22T10:58:56;2.93;;;1.70;;
9892;SDS011;4985;49.092;8.542;2023-11-22T11:01:25;3.17;;;2.23;;
9892;SDS011;4985;49.092;8.542;2023-11-22T11:04:08;3.53;;;2.10;;
9892;SDS011;4985;49.092;8.542;2023-11-22T11:06:36;2.17;;;1.73;;
9892;SDS011;4985;49.092;8.542;2023-11-22T11:09:03;2.90;;;1.93;;
9892;SDS011;4985;49.092;8.542;2023-11-22T11:11:34;2.10;;;1.70;;
9892;SDS011;4985;49.092;8.542;2023-11-22T11:14:00;2.67;;;1.93;;
9892;SDS011;4985;49.092;8.542;2023-11-22T11:16:30;2.50;;;1.83;;
9892;SDS011;4985;49.092;8.542;2023-11-22T11:18:59;2.40;;;2.07;;
9892;SDS011;4985;49.092;8.542;2023-11-22T11:21:26;3.73;;;2.17;;
9892;SDS011;4985;49.092;8.542;2023-11-22T11:23:51;2.70;;;2.10;;
9892;SDS011;4985;49.092;8.542;2023-11-22T11:26:18;2.50;;;2.00;;
9892;SDS011;4985;49.092;8.542;2023-11-22T11:28:48;3.30;;;2.10;;
9892;SDS011;4985;49.092;8.542;2023-11-22T11:31:16;2.73;;;2.03;;
9892;SDS011;4985;49.092;8.542;2023-11-22T11:36:21;3.03;;;2.07;;
9892;SDS011;4985;49.092;8.542;2023-11-22T11:38:46;2.90;;;1.73;;
9892;SDS011;4985;49.092;8.542;2023-11-22T11:41:14;3.20;;;2.17;;
9892;SDS011;4985;49.092;8.542;2023-11-22T11:43:40;2.57;;;1.97;;
9892;SDS011;4985;49.092;8.542;2023-11-22T11:46:09;5.20;;;2.30;;
9892;SDS011;4985;49.092;8.542;2023-11-22T11:48:35;2.43;;;2.17;;
9892;SDS011;4985;49.092;8.542;2023-11-22T11:51:00;3.10;;;2.17;;
9892;SDS011;4985;49.092;8.542;2023-11-22T11:53:26;2.60;;;1.87;;
9892;SDS011;4985;49.092;8.542;2023-11-22T11:55:53;3.13;;;2.10;;
9892;SDS011;4985;49.092;8.542;2023-11-22T11:58:19;3.03;;;1.97;;
9892;SDS011;4985;49.092;8.542;2023-11-22T12:00:45;3.77;;;2.10;;
9892;SDS011;4985;49.092;8.542;2023-11-22T12:03:10;3.27;;;2.10;;
9892;SDS011;4985;49.092;8.542;2023-11-22T12:05:39;3.17;;;2.03;;
9892;SDS011;4985;49.092;8.542;2023-11-22T12:08:05;2.67;;;2.10;;
9892;SDS011;4985;49.092;8.542;2023-11-22T12:10:31;3.03;;;2.17;;
9892;SDS011;4985;49.092;8.542;2023-11-22T12:12:56;3.53;;;2.60;;
9892;SDS011;4985;49.092;8.542;2023-11-22T12:15:23;2.83;;;2.23;;
9892;SDS011;4985;49.092;8.542;2023-11-22T12:17:49;2.67;;;2.13;;
9892;SDS011;4985;49.092;8.542;2023-11-22T12:20:16;2.57;;;2.00;;
9892;SDS011;4985;49.092;8.542;2023-11-22T12:22:43;2.70;;;1.90;;
9892;SDS011;4985;49.092;8.542;2023-11-22T12:25:10;2.20;;;1.87;;
9892;SDS011;4985;49.092;8.542;2023-11-22T12:27:40;3.03;;;2.00;;
9892;SDS011;4985;49.092;8.542;2023-11-22T12:30:07;2.77;;;2.00;;
9892;SDS011;4985;49.092;8.542;2023-11-22T12:32:33;2.60;;;1.77;;
9892;SDS011;4985;49.092;8.542;2023-11-22T12:34:59;2.77;;;1.90;;
9892;SDS011;4985;49.092;8.542;2023-11-22T12:37:24;3.33;;;2.00;;
9892;SDS011;4985;49.092;8.542;2023-11-22T12:39:51;2.93;;;2.07;;
9892;SDS011;4985;49.092;8.542;2023-11-22T12:42:17;2.37;;;2.03;;
9892;SDS011;4985;49.092;8.542;2023-11-22T12:44:52;2.43;;;1.87;;
9892;SDS011;4985;49.092;8.542;2023-11-22T12:47:30;2.50;;;1.87;;
9892;SDS011;4985;49.092;8.542;2023-11-22T12:50:00;2.70;;;1.90;;
9892;SDS011;4985;49.092;8.542;2023-11-22T12:52:27;2.33;;;2.07;;
9892;SDS011;4985;49.092;8.542;2023-11-22T12:54:53;2.67;;;2.20;;
9892;SDS011;4985;49.092;8.542;2023-11-22T12:57:18;2.33;;;1.70;;
9892;SDS011;4985;49.092;8.542;2023-11-22T12:59:43;2.07;;;1.87;;
9892;SDS011;4985;49.092;8.542;2023-11-22T13:02:09;2.37;;;1.93;;
9892;SDS011;4985;49.092;8.542;2023-11-22T13:04:34;2.30;;;1.87;;
9892;SDS011;4985;49.092;8.542;2023-11-22T13:06:59;3.20;;;2.10;;
9892;SDS011;4985;49.092;8.542;2023-11-22T13:09:25;2.90;;;1.90;;
9892;SDS011;4985;49.092;8.542;2023-11-22T13:11:51;2.30;;;1.80;;
9892;SDS011;4985;49.092;8.542;2023-11-22T13:14:17;2.90;;;1.87;;
9892;SDS011;4985;49.092;8.542;2023-11-22T13:16:43;2.43;;;1.80;;
9892;SDS011;4985;49.092;8.542;2023-11-22T13:19:10;2.60;;;1.83;;
9892;SDS011;4985;49.092;8.542;2023-11-22T13:21:35;3.47;;;2.23;;
9892;SDS011;4985;49.092;8.542;2023-11-22T13:24:00;3.10;;;2.20;;
9892;SDS011;4985;49.092;8.542;2023-11-22T13:26:26;3.07;;;1.90;;
9892;SDS011;4985;49.092;8.542;2023-11-22T13:28:52;2.80;;;2.07;;
9892;SDS011;4985;49.092;8.542;2023-11-22T13:31:19;2.77;;;2.27;;
9892;SDS011;4985;49.092;8.542;2023-11-22T13:33:46;2.83;;;2.10;;
9892;SDS011;4985;49.092;8.542;2023-11-22T13:36:12;2.00;;;1.70;;
9892;SDS011;4985;49.092;8.542;2023-11-22T13:38:39;2.50;;;1.60;;
9892;SDS011;4985;49.092;8.542;2023-11-22T13:41:04;2.10;;;1.70;;
9892;SDS011;4985;49.092;8.542;2023-11-22T13:43:30;2.77;;;1.90;;
9892;SDS011;4985;49.092;8.542;2023-11-22T13:45:56;3.20;;;2.27;;
9892;SDS011;4985;49.092;8.542;2023-11-22T13:48:21;2.50;;;2.07;;
9892;SDS011;4985;49.092;8.542;2023-11-22T13:50:48;2.57;;;2.03;;
9892;SDS011;4985;49.092;8.542;2023-11-22T13:53:14;3.40;;;2.17;;
9892;SDS011;4985;49.092;8.542;2023-11-22T13:55:40;3.37;;;1.90;;
9892;SDS011;4985;49.092;8.542;2023-11-22T13:58:05;3.43;;;2.30;;
9892;SDS011;4985;49.092;8.542;2023-11-22T14:00:30;3.37;;;2.80;;
9892;SDS011;4985;49.092;8.542;2023-11-22T14:03:00;2.73;;;2.27;;
9892;SDS011;4985;49.092;8.542;2023-11-22T14:05:31;2.47;;;2.07;;
9892;SDS011;4985;49.092;8.542;2023-11-22T14:07:57;2.27;;;1.80;;
9892;SDS011;4985;49.092;8.542;2023-11-22T14:10:23;2.27;;;1.73;;
9892;SDS011;4985;49.092;8.542;2023-11-22T14:12:49;2.30;;;1.80;;
9892;SDS011;4985;49.092;8.542;2023-11-22T14:15:15;2.83;;;2.10;;
9892;SDS011;4985;49.092;8.542;2023-11-22T14:17:40;3.63;;;1.77;;
9892;SDS011;4985;49.092;8.542;2023-11-22T14:22:34;3.17;;;2.23;;
9892;SDS011;4985;49.092;8.542;2023-11-22T14:25:00;3.40;;;2.47;;
9892;SDS011;4985;49.092;8.542;2023-11-22T14:27:25;2.70;;;2.00;;
9892;SDS011;4985;49.092;8.542;2023-11-22T14:29:52;2.10;;;1.70;;
9892;SDS011;4985;49.092;8.542;2023-11-22T14:32:19;4.80;;;2.70;;
9892;SDS011;4985;49.092;8.542;2023-11-22T14:34:48;2.40;;;1.80;;
9892;SDS011;4985;49.092;8.542;2023-11-22T14:37:13;2.73;;;2.00;;
9892;SDS011;4985;49.092;8.542;2023-11-22T14:39:40;4.10;;;1.53;;
9892;SDS011;4985;49.092;8.542;2023-11-22T14:42:05;2.73;;;1.90;;
9892;SDS011;4985;49.092;8.542;2023-11-22T14:44:32;2.33;;;1.97;;
9892;SDS011;4985;49.092;8.542;2023-11-22T14:46:59;2.60;;;2.00;;
9892;SDS011;4985;49.092;8.542;2023-11-22T14:49:24;2.57;;;2.00;;
9892;SDS011;4985;49.092;8.542;2023-11-22T14:51:50;3.80;;;1.70;;
9892;SDS011;4985;49.092;8.542;2023-11-22T14:54:16;2.20;;;2.00;;
9892;SDS011;4985;49.092;8.542;2023-11-22T14:56:41;4.10;;;1.93;;
9892;SDS011;4985;49.092;8.542;2023-11-22T14:59:07;2.57;;;2.07;;
9892;SDS011;4985;49.092;8.542;2023-11-22T15:01:32;1.93;;;1.70;;
9892;SDS011;4985;49.092;8.542;2023-11-22T15:03:58;2.23;;;1.87;;
9892;SDS011;4985;49.092;8.542;2023-11-22T15:06:23;2.50;;;2.10;;
9892;SDS011;4985;49.092;8.542;2023-11-22T15:08:49;2.40;;;1.67;;
9892;SDS011;4985;49.092;8.542;2023-11-22T15:11:15;2.63;;;2.00;;
9892;SDS011;4985;49.092;8.542;2023-11-22T15:13:43;2.93;;;2.20;;